sensor_id;sensor_type;location;lat;lon;timestamp;P1;durP1;ratioP1;P2;durP2;ratioP2
21494;SDS011;10909;53.590;10.054;2022-08-30T00:01:02;1.17;;;0.90;;
21494;SDS011;10909;53.590;10.054;2022-08-30T00:03:34;1.02;;;0.80;;
21494;SDS011;10909;53.590;10.054;2022-08-30T00:06:02;1.00;;;0.70;;
21494;SDS011;10909;53.590;10.054;2022-08-30T00:08:31;0.73;;;0.73;;
21494;SDS011;10909;53.590;10.054;2022-08-30T00:10:58;1.00;;;0.75;;
21494;SDS011;10909;53.590;10.054;2022-08-30T00:13:24;1.13;;;0.90;;
21494;SDS011;10909;53.590;10.054;2022-08-30T00:15:49;1.35;;;0.73;;
21494;SDS011;10909;53.590;10.054;2022-08-30T00:18:16;1.23;;;0.80;;
21494;SDS011;10909;53.590;10.054;2022-08-30T00:20:43;0.93;;;0.70;;
21494;SDS011;10909;53.590;10.054;2022-08-30T00:23:11;1.27;;;0.95;;
21494;SDS011;10909;53.590;10.054;2022-08-30T00:25:37;1.65;;;0.88;;
21494;SDS011;10909;53.590;10.054;2022-08-30T00:28:03;2.15;;;0.98;;
21494;SDS011;10909;53.590;10.054;2022-08-30T00:30:29;1.08;;;0.77;;
21494;SDS011;10909;53.590;10.054;2022-08-30T00:32:55;1.42;;;0.70;;
21494;SDS011;10909;53.590;10.054;2022-08-30T00:35:21;0.80;;;0.80;;
21494;SDS011;10909;53.590;10.054;2022-08-30T00:37:46;1.08;;;0.70;;
21494;SDS011;10909;53.590;10.054;2022-08-30T00:40:12;0.82;;;0.75;;
21494;SDS011;10909;53.590;10.054;2022-08-30T00:42:42;1.15;;;0.80;;
21494;SDS011;10909;53.590;10.054;2022-08-30T00:45:13;0.70;;;0.65;;
21494;SDS011;10909;53.590;10.054;2022-08-30T00:47:41;3.15;;;1.10;;
21494;SDS011;10909;53.590;10.054;2022-08-30T00:50:07;0.80;;;0.70;;
21494;SDS011;10909;53.590;10.054;2022-08-30T00:52:35;1.88;;;0.90;;
21494;SDS011;10909;53.590;10.054;2022-08-30T00:55:05;1.30;;;0.90;;
21494;SDS011;10909;53.590;10.054;2022-08-30T00:57:31;1.10;;;0.77;;
21494;SDS011;10909;53.590;10.054;2022-08-30T00:59:59;1.67;;;0.90;;
21494;SDS011;10909;53.590;10.054;2022-08-30T01:02:28;1.63;;;0.77;;
21494;SDS011;10909;53.590;10.054;2022-08-30T01:04:55;1.02;;;0.93;;
21494;SDS011;10909;53.590;10.054;2022-08-30T01:07:21;2.63;;;1.00;;
21494;SDS011;10909;53.590;10.054;2022-08-30T01:09:47;0.73;;;0.73;;
21494;SDS011;10909;53.590;10.054;2022-08-30T01:12:12;1.35;;;0.90;;
21494;SDS011;10909;53.590;10.054;2022-08-30T01:14:38;2.78;;;1.00;;
21494;SDS011;10909;53.590;10.054;2022-08-30T01:17:04;2.80;;;0.90;;
21494;SDS011;10909;53.590;10.054;2022-08-30T01:22:27;3.13;;;1.02;;
21494;SDS011;10909;53.590;10.054;2022-08-30T01:24:59;0.90;;;0.82;;
21494;SDS011;10909;53.590;10.054;2022-08-30T01:27:29;0.68;;;0.68;;
21494;SDS011;10909;53.590;10.054;2022-08-30T01:29:56;0.60;;;0.60;;
21494;SDS011;10909;53.590;10.054;2022-08-30T01:32:23;1.42;;;1.10;;
21494;SDS011;10909;53.590;10.054;2022-08-30T01:34:53;0.90;;;0.70;;
21494;SDS011;10909;53.590;10.054;2022-08-30T01:37:21;0.88;;;0.80;;
21494;SDS011;10909;53.590;10.054;2022-08-30T01:39:52;1.58;;;0.75;;
21494;SDS011;10909;53.590;10.054;2022-08-30T01:42:18;1.20;;;0.93;;
21494;SDS011;10909;53.590;10.054;2022-08-30T01:44:44;1.13;;;1.00;;
21494;SDS011;10909;53.590;10.054;2022-08-30T01:47:11;1.15;;;0.80;;
21494;SDS011;10909;53.590;10.054;2022-08-30T01:49:37;0.80;;;0.77;;
21494;SDS011;10909;53.590;10.054;2022-08-30T01:52:04;1.48;;;0.80;;
21494;SDS011;10909;53.590;10.054;2022-08-30T01:54:31;1.15;;;1.05;;
21494;SDS011;10909;53.590;10.054;2022-08-30T01:57:01;1.40;;;1.17;;
21494;SDS011;10909;53.590;10.054;2022-08-30T01:59:27;1.15;;;0.80;;
21494;SDS011;10909;53.590;10.054;2022-08-30T02:01:54;2.00;;;0.90;;
21494;SDS011;10909;53.590;10.054;2022-08-30T02:04:19;1.10;;;1.00;;
21494;SDS011;10909;53.590;10.054;2022-08-30T02:06:45;1.42;;;0.93;;
21494;SDS011;10909;53.590;10.054;2022-08-30T02:09:11;1.00;;;0.90;;
21494;SDS011;10909;53.590;10.054;2022-08-30T02:11:37;2.20;;;0.93;;
21494;SDS011;10909;53.590;10.054;2022-08-30T02:14:04;0.95;;;0.95;;
21494;SDS011;10909;53.590;10.054;2022-08-30T02:16:30;1.10;;;0.80;;
21494;SDS011;10909;53.590;10.054;2022-08-30T02:18:57;1.67;;;0.90;;
21494;SDS011;10909;53.590;10.054;2022-08-30T02:21:23;1.15;;;0.80;;
21494;SDS011;10909;53.590;10.054;2022-08-30T02:23:52;1.40;;;0.88;;
21494;SDS011;10909;53.590;10.054;2022-08-30T02:26:17;1.25;;;0.90;;
21494;SDS011;10909;53.590;10.054;2022-08-30T02:28:44;1.10;;;0.80;;
21494;SDS011;10909;53.590;10.054;2022-08-30T02:31:10;1.17;;;0.82;;
21494;SDS011;10909;53.590;10.054;2022-08-30T02:33:35;0.88;;;0.80;;
21494;SDS011;10909;53.590;10.054;2022-08-30T02:36:02;1.60;;;0.93;;
21494;SDS011;10909;53.590;10.054;2022-08-30T02:38:34;0.90;;;0.70;;
21494;SDS011;10909;53.590;10.054;2022-08-30T02:41:01;0.73;;;0.70;;
21494;SDS011;10909;53.590;10.054;2022-08-30T02:43:27;1.73;;;1.00;;
21494;SDS011;10909;53.590;10.054;2022-08-30T02:45:52;0.77;;;0.75;;
21494;SDS011;10909;53.590;10.054;2022-08-30T02:48:19;0.70;;;0.70;;
21494;SDS011;10909;53.590;10.054;2022-08-30T02:50:46;0.90;;;0.80;;
21494;SDS011;10909;53.590;10.054;2022-08-30T02:53:15;0.82;;;0.82;;
21494;SDS011;10909;53.590;10.054;2022-08-30T02:55:41;1.63;;;0.90;;
21494;SDS011;10909;53.590;10.054;2022-08-30T02:58:07;1.15;;;0.75;;
21494;SDS011;10909;53.590;10.054;2022-08-30T03:00:34;1.05;;;0.80;;
21494;SDS011;10909;53.590;10.054;2022-08-30T03:03:01;1.33;;;0.88;;
21494;SDS011;10909;53.590;10.054;2022-08-30T03:05:28;1.45;;;0.95;;
21494;SDS011;10909;53.590;10.054;2022-08-30T03:07:55;1.20;;;1.00;;
21494;SDS011;10909;53.590;10.054;2022-08-30T03:10:21;3.60;;;1.15;;
21494;SDS011;10909;53.590;10.054;2022-08-30T03:12:46;0.88;;;0.80;;
21494;SDS011;10909;53.590;10.054;2022-08-30T03:15:13;1.35;;;0.90;;
21494;SDS011;10909;53.590;10.054;2022-08-30T03:17:40;1.30;;;0.90;;
21494;SDS011;10909;53.590;10.054;2022-08-30T03:20:06;1.33;;;1.10;;
21494;SDS011;10909;53.590;10.054;2022-08-30T03:22:33;1.45;;;0.90;;
21494;SDS011;10909;53.590;10.054;2022-08-30T03:24:59;1.98;;;0.77;;
21494;SDS011;10909;53.590;10.054;2022-08-30T03:27:25;1.30;;;0.80;;
21494;SDS011;10909;53.590;10.054;2022-08-30T03:29:52;0.65;;;0.65;;
21494;SDS011;10909;53.590;10.054;2022-08-30T03:32:18;5.55;;;1.05;;
21494;SDS011;10909;53.590;10.054;2022-08-30T03:34:44;1.00;;;0.88;;
21494;SDS011;10909;53.590;10.054;2022-08-30T03:37:10;2.42;;;0.90;;
21494;SDS011;10909;53.590;10.054;2022-08-30T03:39:36;1.85;;;1.10;;
21494;SDS011;10909;53.590;10.054;2022-08-30T03:42:01;0.80;;;0.80;;
21494;SDS011;10909;53.590;10.054;2022-08-30T03:44:27;1.20;;;0.82;;
21494;SDS011;10909;53.590;10.054;2022-08-30T03:46:53;1.55;;;1.05;;
21494;SDS011;10909;53.590;10.054;2022-08-30T03:49:19;1.65;;;0.90;;
21494;SDS011;10909;53.590;10.054;2022-08-30T03:51:45;2.17;;;1.10;;
21494;SDS011;10909;53.590;10.054;2022-08-30T03:54:11;1.17;;;0.95;;
21494;SDS011;10909;53.590;10.054;2022-08-30T03:56:38;1.27;;;0.90;;
21494;SDS011;10909;53.590;10.054;2022-08-30T03:59:03;1.30;;;1.00;;
21494;SDS011;10909;53.590;10.054;2022-08-30T04:01:29;0.65;;;0.65;;
21494;SDS011;10909;53.590;10.054;2022-08-30T04:03:55;0.98;;;0.90;;
21494;SDS011;10909;53.590;10.054;2022-08-30T04:06:21;1.50;;;1.00;;
21494;SDS011;10909;53.590;10.054;2022-08-30T04:08:47;1.00;;;0.90;;
21494;SDS011;10909;53.590;10.054;2022-08-30T04:11:13;1.38;;;1.00;;
21494;SDS011;10909;53.590;10.054;2022-08-30T04:13:40;1.55;;;0.90;;
21494;SDS011;10909;53.590;10.054;2022-08-30T04:16:07;1.23;;;0.85;;
21494;SDS011;10909;53.590;10.054;2022-08-30T04:18:33;1.02;;;0.95;;
21494;SDS011;10909;53.590;10.054;2022-08-30T04:21:06;1.17;;;1.00;;
21494;SDS011;10909;53.590;10.054;2022-08-30T04:23:32;1.05;;;0.93;;
21494;SDS011;10909;53.590;10.054;2022-08-30T04:25:58;1.05;;;0.85;;
21494;SDS011;10909;53.590;10.054;2022-08-30T04:28:24;1.33;;;0.85;;
21494;SDS011;10909;53.590;10.054;2022-08-30T04:30:49;1.48;;;1.10;;
21494;SDS011;10909;53.590;10.054;2022-08-30T04:33:15;1.10;;;1.00;;
21494;SDS011;10909;53.590;10.054;2022-08-30T04:35:42;2.10;;;1.10;;
21494;SDS011;10909;53.590;10.054;2022-08-30T04:38:10;1.10;;;1.00;;
21494;SDS011;10909;53.590;10.054;2022-08-30T04:40:37;1.35;;;1.05;;
21494;SDS011;10909;53.590;10.054;2022-08-30T04:43:06;0.93;;;0.80;;
21494;SDS011;10909;53.590;10.054;2022-08-30T04:45:31;0.80;;;0.73;;
21494;SDS011;10909;53.590;10.054;2022-08-30T04:47:57;0.77;;;0.73;;
21494;SDS011;10909;53.590;10.054;2022-08-30T04:50:24;0.98;;;0.88;;
21494;SDS011;10909;53.590;10.054;2022-08-30T04:52:50;1.40;;;0.90;;
21494;SDS011;10909;53.590;10.054;2022-08-30T04:55:16;1.00;;;0.90;;
21494;SDS011;10909;53.590;10.054;2022-08-30T04:57:41;1.80;;;0.85;;
21494;SDS011;10909;53.590;10.054;2022-08-30T05:00:08;1.25;;;0.90;;
21494;SDS011;10909;53.590;10.054;2022-08-30T05:02:40;1.40;;;1.00;;
21494;SDS011;10909;53.590;10.054;2022-08-30T05:05:06;1.80;;;0.90;;
21494;SDS011;10909;53.590;10.054;2022-08-30T05:07:51;1.10;;;1.00;;
21494;SDS011;10909;53.590;10.054;2022-08-30T05:10:18;3.45;;;1.30;;
21494;SDS011;10909;53.590;10.054;2022-08-30T05:12:43;2.70;;;1.05;;
21494;SDS011;10909;53.590;10.054;2022-08-30T05:15:09;1.75;;;1.00;;
21494;SDS011;10909;53.590;10.054;2022-08-30T05:17:36;1.08;;;0.98;;
21494;SDS011;10909;53.590;10.054;2022-08-30T05:20:04;1.08;;;0.90;;
21494;SDS011;10909;53.590;10.054;2022-08-30T05:22:37;1.85;;;1.08;;
21494;SDS011;10909;53.590;10.054;2022-08-30T05:25:05;1.52;;;1.00;;
21494;SDS011;10909;53.590;10.054;2022-08-30T05:27:33;1.30;;;0.90;;
21494;SDS011;10909;53.590;10.054;2022-08-30T05:29:59;1.00;;;0.90;;
21494;SDS011;10909;53.590;10.054;2022-08-30T05:32:27;1.17;;;0.98;;
21494;SDS011;10909;53.590;10.054;2022-08-30T05:34:52;1.45;;;0.88;;
21494;SDS011;10909;53.590;10.054;2022-08-30T05:37:18;3.60;;;1.90;;
21494;SDS011;10909;53.590;10.054;2022-08-30T05:39:43;3.20;;;2.15;;
21494;SDS011;10909;53.590;10.054;2022-08-30T05:42:09;4.22;;;2.70;;
21494;SDS011;10909;53.590;10.054;2022-08-30T05:44:35;3.25;;;2.92;;
21494;SDS011;10909;53.590;10.054;2022-08-30T05:47:00;2.47;;;2.15;;
21494;SDS011;10909;53.590;10.054;2022-08-30T05:49:26;5.95;;;1.95;;
21494;SDS011;10909;53.590;10.054;2022-08-30T05:51:51;2.08;;;1.50;;
21494;SDS011;10909;53.590;10.054;2022-08-30T05:54:17;1.85;;;1.08;;
21494;SDS011;10909;53.590;10.054;2022-08-30T05:56:44;1.23;;;1.00;;
21494;SDS011;10909;53.590;10.054;2022-08-30T05:59:10;1.52;;;1.00;;
21494;SDS011;10909;53.590;10.054;2022-08-30T06:01:37;1.50;;;1.20;;
21494;SDS011;10909;53.590;10.054;2022-08-30T06:04:05;1.67;;;1.40;;
21494;SDS011;10909;53.590;10.054;2022-08-30T06:06:33;1.48;;;1.02;;
21494;SDS011;10909;53.590;10.054;2022-08-30T06:09:02;1.70;;;1.17;;
21494;SDS011;10909;53.590;10.054;2022-08-30T06:11:29;1.17;;;1.00;;
21494;SDS011;10909;53.590;10.054;2022-08-30T06:13:56;2.42;;;1.00;;
21494;SDS011;10909;53.590;10.054;2022-08-30T06:16:23;1.48;;;1.00;;
21494;SDS011;10909;53.590;10.054;2022-08-30T06:18:51;1.70;;;1.00;;
21494;SDS011;10909;53.590;10.054;2022-08-30T06:23:44;2.47;;;0.90;;
21494;SDS011;10909;53.590;10.054;2022-08-30T06:26:11;1.73;;;1.10;;
21494;SDS011;10909;53.590;10.054;2022-08-30T06:28:38;0.82;;;0.80;;
21494;SDS011;10909;53.590;10.054;2022-08-30T06:31:10;0.80;;;0.77;;
21494;SDS011;10909;53.590;10.054;2022-08-30T06:33:37;1.15;;;0.80;;
21494;SDS011;10909;53.590;10.054;2022-08-30T06:36:09;0.98;;;0.80;;
21494;SDS011;10909;53.590;10.054;2022-08-30T06:38:38;0.93;;;0.80;;
21494;SDS011;10909;53.590;10.054;2022-08-30T06:41:08;2.08;;;1.00;;
21494;SDS011;10909;53.590;10.054;2022-08-30T06:43:37;1.63;;;0.90;;
21494;SDS011;10909;53.590;10.054;2022-08-30T06:46:04;1.52;;;0.90;;
21494;SDS011;10909;53.590;10.054;2022-08-30T06:48:35;1.10;;;0.68;;
21494;SDS011;10909;53.590;10.054;2022-08-30T06:51:01;1.08;;;0.98;;
21494;SDS011;10909;53.590;10.054;2022-08-30T06:53:27;1.13;;;1.02;;
21494;SDS011;10909;53.590;10.054;2022-08-30T06:55:55;2.08;;;0.82;;
21494;SDS011;10909;53.590;10.054;2022-08-30T06:58:26;1.75;;;1.00;;
21494;SDS011;10909;53.590;10.054;2022-08-30T07:00:53;2.22;;;1.15;;
21494;SDS011;10909;53.590;10.054;2022-08-30T07:03:19;0.70;;;0.65;;
21494;SDS011;10909;53.590;10.054;2022-08-30T07:05:48;1.70;;;1.02;;
21494;SDS011;10909;53.590;10.054;2022-08-30T07:08:14;3.38;;;0.82;;
21494;SDS011;10909;53.590;10.054;2022-08-30T07:10:40;0.88;;;0.82;;
21494;SDS011;10909;53.590;10.054;2022-08-30T07:13:07;1.98;;;0.90;;
21494;SDS011;10909;53.590;10.054;2022-08-30T07:15:33;1.70;;;1.00;;
21494;SDS011;10909;53.590;10.054;2022-08-30T07:18:01;1.35;;;0.85;;
21494;SDS011;10909;53.590;10.054;2022-08-30T07:20:46;1.08;;;0.98;;
21494;SDS011;10909;53.590;10.054;2022-08-30T07:23:11;0.73;;;0.73;;
21494;SDS011;10909;53.590;10.054;2022-08-30T07:25:38;0.95;;;0.90;;
21494;SDS011;10909;53.590;10.054;2022-08-30T07:28:04;1.27;;;0.98;;
21494;SDS011;10909;53.590;10.054;2022-08-30T07:30:32;1.20;;;1.00;;
21494;SDS011;10909;53.590;10.054;2022-08-30T07:32:58;0.90;;;0.90;;
21494;SDS011;10909;53.590;10.054;2022-08-30T07:35:24;1.08;;;0.95;;
21494;SDS011;10909;53.590;10.054;2022-08-30T07:37:51;1.73;;;0.82;;
21494;SDS011;10909;53.590;10.054;2022-08-30T07:40:16;1.00;;;0.90;;
21494;SDS011;10909;53.590;10.054;2022-08-30T07:42:42;1.17;;;1.02;;
21494;SDS011;10909;53.590;10.054;2022-08-30T07:45:11;1.55;;;0.90;;
21494;SDS011;10909;53.590;10.054;2022-08-30T07:47:38;1.13;;;0.95;;
21494;SDS011;10909;53.590;10.054;2022-08-30T07:50:04;1.10;;;0.90;;
21494;SDS011;10909;53.590;10.054;2022-08-30T07:52:33;1.58;;;0.73;;
21494;SDS011;10909;53.590;10.054;2022-08-30T07:54:59;1.70;;;1.00;;
21494;SDS011;10909;53.590;10.054;2022-08-30T07:57:26;2.22;;;1.20;;
21494;SDS011;10909;53.590;10.054;2022-08-30T07:59:52;1.27;;;1.08;;
21494;SDS011;10909;53.590;10.054;2022-08-30T08:02:18;1.70;;;1.00;;
21494;SDS011;10909;53.590;10.054;2022-08-30T08:04:44;0.93;;;0.80;;
21494;SDS011;10909;53.590;10.054;2022-08-30T08:07:10;1.73;;;1.00;;
21494;SDS011;10909;53.590;10.054;2022-08-30T08:09:36;1.40;;;0.95;;
21494;SDS011;10909;53.590;10.054;2022-08-30T08:12:04;2.45;;;1.00;;
21494;SDS011;10909;53.590;10.054;2022-08-30T08:14:31;1.85;;;1.08;;
21494;SDS011;10909;53.590;10.054;2022-08-30T08:16:57;1.05;;;0.80;;
21494;SDS011;10909;53.590;10.054;2022-08-30T08:19:23;1.15;;;0.90;;
21494;SDS011;10909;53.590;10.054;2022-08-30T08:21:49;1.35;;;1.00;;
21494;SDS011;10909;53.590;10.054;2022-08-30T08:24:20;1.58;;;0.90;;
21494;SDS011;10909;53.590;10.054;2022-08-30T08:26:47;0.82;;;0.70;;
21494;SDS011;10909;53.590;10.054;2022-08-30T08:29:13;1.10;;;1.00;;
21494;SDS011;10909;53.590;10.054;2022-08-30T08:31:39;1.00;;;0.93;;
21494;SDS011;10909;53.590;10.054;2022-08-30T08:34:05;1.02;;;0.77;;
21494;SDS011;10909;53.590;10.054;2022-08-30T08:36:32;0.70;;;0.70;;
21494;SDS011;10909;53.590;10.054;2022-08-30T08:38:59;0.80;;;0.70;;
21494;SDS011;10909;53.590;10.054;2022-08-30T08:49:31;0.95;;;0.88;;
21494;SDS011;10909;53.590;10.054;2022-08-30T08:51:59;1.10;;;0.77;;
21494;SDS011;10909;53.590;10.054;2022-08-30T08:54:48;1.20;;;0.70;;
21494;SDS011;10909;53.590;10.054;2022-08-30T08:57:23;0.73;;;0.73;;
21494;SDS011;10909;53.590;10.054;2022-08-30T08:59:49;0.80;;;0.65;;
21494;SDS011;10909;53.590;10.054;2022-08-30T09:02:22;0.63;;;0.63;;
21494;SDS011;10909;53.590;10.054;2022-08-30T09:04:55;0.70;;;0.70;;
21494;SDS011;10909;53.590;10.054;2022-08-30T09:07:35;0.75;;;0.75;;
21494;SDS011;10909;53.590;10.054;2022-08-30T09:10:04;0.73;;;0.52;;
21494;SDS011;10909;53.590;10.054;2022-08-30T09:12:30;0.60;;;0.60;;
21494;SDS011;10909;53.590;10.054;2022-08-30T09:15:11;1.00;;;0.70;;
21494;SDS011;10909;53.590;10.054;2022-08-30T09:25:39;1.25;;;0.70;;
21494;SDS011;10909;53.590;10.054;2022-08-30T09:28:22;1.05;;;0.65;;
21494;SDS011;10909;53.590;10.054;2022-08-30T09:31:03;1.20;;;0.77;;
21494;SDS011;10909;53.590;10.054;2022-08-30T09:33:54;0.60;;;0.60;;
21494;SDS011;10909;53.590;10.054;2022-08-30T09:36:41;0.80;;;0.80;;
21494;SDS011;10909;53.590;10.054;2022-08-30T09:39:16;1.27;;;0.80;;
21494;SDS011;10909;53.590;10.054;2022-08-30T09:41:51;1.30;;;0.90;;
21494;SDS011;10909;53.590;10.054;2022-08-30T09:46:49;0.82;;;0.70;;
21494;SDS011;10909;53.590;10.054;2022-08-30T09:49:35;0.68;;;0.68;;
21494;SDS011;10909;53.590;10.054;2022-08-30T09:52:12;1.27;;;0.80;;
21494;SDS011;10909;53.590;10.054;2022-08-30T09:55:23;0.80;;;0.77;;
21494;SDS011;10909;53.590;10.054;2022-08-30T10:00:53;1.75;;;0.90;;
21494;SDS011;10909;53.590;10.054;2022-08-30T10:06:45;0.77;;;0.77;;
21494;SDS011;10909;53.590;10.054;2022-08-30T10:12:11;1.00;;;0.90;;
21494;SDS011;10909;53.590;10.054;2022-08-30T10:14:50;1.27;;;1.00;;
21494;SDS011;10909;53.590;10.054;2022-08-30T10:23:17;2.03;;;0.90;;
21494;SDS011;10909;53.590;10.054;2022-08-30T10:26:11;1.48;;;1.10;;
21494;SDS011;10909;53.590;10.054;2022-08-30T10:28:41;1.15;;;0.90;;
21494;SDS011;10909;53.590;10.054;2022-08-30T10:34:36;1.00;;;0.82;;
21494;SDS011;10909;53.590;10.054;2022-08-30T10:37:03;2.05;;;1.15;;
21494;SDS011;10909;53.590;10.054;2022-08-30T10:39:36;1.00;;;0.93;;
21494;SDS011;10909;53.590;10.054;2022-08-30T10:42:12;1.10;;;0.90;;
21494;SDS011;10909;53.590;10.054;2022-08-30T10:45:03;0.90;;;0.80;;
21494;SDS011;10909;53.590;10.054;2022-08-30T10:50:37;1.65;;;1.10;;
21494;SDS011;10909;53.590;10.054;2022-08-30T10:53:17;1.20;;;1.10;;
21494;SDS011;10909;53.590;10.054;2022-08-30T10:55:52;1.13;;;0.95;;
21494;SDS011;10909;53.590;10.054;2022-08-30T10:58:26;1.50;;;1.17;;
21494;SDS011;10909;53.590;10.054;2022-08-30T11:03:51;2.35;;;1.10;;
21494;SDS011;10909;53.590;10.054;2022-08-30T11:15:28;0.90;;;0.80;;
21494;SDS011;10909;53.590;10.054;2022-08-30T11:17:57;1.45;;;1.00;;
21494;SDS011;10909;53.590;10.054;2022-08-30T11:33:45;2.53;;;0.95;;
21494;SDS011;10909;53.590;10.054;2022-08-30T11:41:31;1.50;;;1.00;;
21494;SDS011;10909;53.590;10.054;2022-08-30T11:44:41;0.80;;;0.80;;
21494;SDS011;10909;53.590;10.054;2022-08-30T11:46:54;1.00;;;0.90;;
21494;SDS011;10909;53.590;10.054;2022-08-30T11:52:42;0.77;;;0.77;;
21494;SDS011;10909;53.590;10.054;2022-08-30T11:55:31;1.23;;;1.00;;
21494;SDS011;10909;53.590;10.054;2022-08-30T12:00:47;1.13;;;0.75;;
21494;SDS011;10909;53.590;10.054;2022-08-30T12:03:33;1.63;;;1.00;;
21494;SDS011;10909;53.590;10.054;2022-08-30T12:06:00;1.02;;;0.90;;
21494;SDS011;10909;53.590;10.054;2022-08-30T12:08:45;1.30;;;0.90;;
21494;SDS011;10909;53.590;10.054;2022-08-30T12:16:16;1.30;;;0.90;;
21494;SDS011;10909;53.590;10.054;2022-08-30T12:18:48;2.08;;;1.25;;
21494;SDS011;10909;53.590;10.054;2022-08-30T12:24:00;1.73;;;1.08;;
21494;SDS011;10909;53.590;10.054;2022-08-30T12:26:36;1.00;;;0.88;;
21494;SDS011;10909;53.590;10.054;2022-08-30T12:29:25;1.30;;;0.90;;
21494;SDS011;10909;53.590;10.054;2022-08-30T12:31:52;1.20;;;0.98;;
21494;SDS011;10909;53.590;10.054;2022-08-30T12:34:31;1.42;;;1.08;;
21494;SDS011;10909;53.590;10.054;2022-08-30T12:37:04;1.10;;;1.00;;
21494;SDS011;10909;53.590;10.054;2022-08-30T12:40:06;2.15;;;1.02;;
21494;SDS011;10909;53.590;10.054;2022-08-30T12:42:34;2.25;;;0.88;;
21494;SDS011;10909;53.590;10.054;2022-08-30T12:45:22;0.60;;;0.60;;
21494;SDS011;10909;53.590;10.054;2022-08-30T12:47:55;0.70;;;0.70;;
21494;SDS011;10909;53.590;10.054;2022-08-30T12:50:45;0.75;;;0.75;;
21494;SDS011;10909;53.590;10.054;2022-08-30T12:53:20;1.00;;;0.80;;
21494;SDS011;10909;53.590;10.054;2022-08-30T12:55:57;1.10;;;0.90;;
21494;SDS011;10909;53.590;10.054;2022-08-30T12:58:43;1.35;;;0.70;;
21494;SDS011;10909;53.590;10.054;2022-08-30T13:01:27;1.00;;;0.88;;
21494;SDS011;10909;53.590;10.054;2022-08-30T13:04:09;0.80;;;0.73;;
21494;SDS011;10909;53.590;10.054;2022-08-30T13:06:55;1.38;;;0.88;;
21494;SDS011;10909;53.590;10.054;2022-08-30T13:09:25;1.05;;;0.80;;
21494;SDS011;10909;53.590;10.054;2022-08-30T13:12:02;0.75;;;0.70;;
21494;SDS011;10909;53.590;10.054;2022-08-30T13:17:25;0.98;;;0.80;;
21494;SDS011;10909;53.590;10.054;2022-08-30T13:20:06;0.90;;;0.80;;
21494;SDS011;10909;53.590;10.054;2022-08-30T13:23:06;2.05;;;0.90;;
21494;SDS011;10909;53.590;10.054;2022-08-30T13:25:34;1.30;;;0.90;;
21494;SDS011;10909;53.590;10.054;2022-08-30T13:28:02;1.25;;;0.95;;
21494;SDS011;10909;53.590;10.054;2022-08-30T13:30:30;0.73;;;0.60;;
21494;SDS011;10909;53.590;10.054;2022-08-30T13:32:57;0.93;;;0.88;;
21494;SDS011;10909;53.590;10.054;2022-08-30T13:35:25;1.17;;;1.08;;
21494;SDS011;10909;53.590;10.054;2022-08-30T13:37:51;1.45;;;1.00;;
21494;SDS011;10909;53.590;10.054;2022-08-30T13:40:17;0.90;;;0.80;;
21494;SDS011;10909;53.590;10.054;2022-08-30T13:42:44;1.00;;;0.80;;
21494;SDS011;10909;53.590;10.054;2022-08-30T13:45:10;1.30;;;1.00;;
21494;SDS011;10909;53.590;10.054;2022-08-30T13:47:37;0.57;;;0.57;;
21494;SDS011;10909;53.590;10.054;2022-08-30T13:50:03;1.33;;;0.98;;
21494;SDS011;10909;53.590;10.054;2022-08-30T13:52:29;2.88;;;0.93;;
21494;SDS011;10909;53.590;10.054;2022-08-30T13:54:56;0.75;;;0.70;;
21494;SDS011;10909;53.590;10.054;2022-08-30T13:57:23;1.05;;;0.90;;
21494;SDS011;10909;53.590;10.054;2022-08-30T13:59:50;2.05;;;0.90;;
21494;SDS011;10909;53.590;10.054;2022-08-30T14:02:15;1.15;;;1.02;;
21494;SDS011;10909;53.590;10.054;2022-08-30T14:04:41;1.02;;;0.80;;
21494;SDS011;10909;53.590;10.054;2022-08-30T14:07:07;0.80;;;0.77;;
21494;SDS011;10909;53.590;10.054;2022-08-30T14:09:32;1.05;;;0.80;;
21494;SDS011;10909;53.590;10.054;2022-08-30T14:11:58;1.35;;;0.80;;
21494;SDS011;10909;53.590;10.054;2022-08-30T14:14:24;1.17;;;1.00;;
21494;SDS011;10909;53.590;10.054;2022-08-30T14:16:50;1.35;;;0.88;;
21494;SDS011;10909;53.590;10.054;2022-08-30T14:19:16;1.77;;;0.68;;
21494;SDS011;10909;53.590;10.054;2022-08-30T14:21:42;1.20;;;1.10;;
21494;SDS011;10909;53.590;10.054;2022-08-30T14:24:09;1.02;;;0.80;;
21494;SDS011;10909;53.590;10.054;2022-08-30T14:26:37;0.70;;;0.70;;
21494;SDS011;10909;53.590;10.054;2022-08-30T14:29:09;1.30;;;1.00;;
21494;SDS011;10909;53.590;10.054;2022-08-30T14:31:37;1.10;;;0.90;;
21494;SDS011;10909;53.590;10.054;2022-08-30T14:34:03;1.38;;;1.08;;
21494;SDS011;10909;53.590;10.054;2022-08-30T14:36:32;0.77;;;0.73;;
21494;SDS011;10909;53.590;10.054;2022-08-30T14:39:00;0.93;;;0.82;;
21494;SDS011;10909;53.590;10.054;2022-08-30T14:41:28;1.58;;;0.85;;
21494;SDS011;10909;53.590;10.054;2022-08-30T14:43:53;0.85;;;0.80;;
21494;SDS011;10909;53.590;10.054;2022-08-30T14:46:19;0.70;;;0.70;;
21494;SDS011;10909;53.590;10.054;2022-08-30T14:48:45;0.80;;;0.80;;
21494;SDS011;10909;53.590;10.054;2022-08-30T14:51:12;0.80;;;0.73;;
21494;SDS011;10909;53.590;10.054;2022-08-30T14:53:40;1.02;;;0.90;;
21494;SDS011;10909;53.590;10.054;2022-08-30T14:56:11;1.08;;;0.70;;
21494;SDS011;10909;53.590;10.054;2022-08-30T14:58:39;0.98;;;0.80;;
21494;SDS011;10909;53.590;10.054;2022-08-30T15:01:11;1.25;;;0.90;;
21494;SDS011;10909;53.590;10.054;2022-08-30T15:03:37;0.82;;;0.80;;
21494;SDS011;10909;53.590;10.054;2022-08-30T15:06:10;1.55;;;1.45;;
21494;SDS011;10909;53.590;10.054;2022-08-30T15:08:36;2.30;;;1.35;;
21494;SDS011;10909;53.590;10.054;2022-08-30T15:11:09;1.00;;;0.90;;
21494;SDS011;10909;53.590;10.054;2022-08-30T15:13:36;1.73;;;1.10;;
21494;SDS011;10909;53.590;10.054;2022-08-30T15:16:08;0.88;;;0.88;;
21494;SDS011;10909;53.590;10.054;2022-08-30T15:18:36;0.80;;;0.70;;
21494;SDS011;10909;53.590;10.054;2022-08-30T15:21:02;1.67;;;0.90;;
21494;SDS011;10909;53.590;10.054;2022-08-30T15:23:28;0.80;;;0.80;;
21494;SDS011;10909;53.590;10.054;2022-08-30T15:25:53;2.88;;;0.82;;
21494;SDS011;10909;53.590;10.054;2022-08-30T15:28:19;1.10;;;0.90;;
21494;SDS011;10909;53.590;10.054;2022-08-30T15:30:45;0.90;;;0.70;;
21494;SDS011;10909;53.590;10.054;2022-08-30T15:33:10;0.60;;;0.60;;
21494;SDS011;10909;53.590;10.054;2022-08-30T15:35:36;0.80;;;0.80;;
21494;SDS011;10909;53.590;10.054;2022-08-30T15:38:02;0.88;;;0.80;;
21494;SDS011;10909;53.590;10.054;2022-08-30T15:40:27;1.33;;;0.90;;
21494;SDS011;10909;53.590;10.054;2022-08-30T15:42:54;0.85;;;0.70;;
21494;SDS011;10909;53.590;10.054;2022-08-30T15:45:20;0.98;;;0.88;;
21494;SDS011;10909;53.590;10.054;2022-08-30T15:47:45;0.77;;;0.77;;
21494;SDS011;10909;53.590;10.054;2022-08-30T15:50:11;1.10;;;0.77;;
21494;SDS011;10909;53.590;10.054;2022-08-30T15:52:37;0.95;;;0.75;;
21494;SDS011;10909;53.590;10.054;2022-08-30T15:55:02;1.42;;;0.80;;
21494;SDS011;10909;53.590;10.054;2022-08-30T15:57:29;0.80;;;0.80;;
21494;SDS011;10909;53.590;10.054;2022-08-30T15:59:54;2.33;;;1.10;;
21494;SDS011;10909;53.590;10.054;2022-08-30T16:02:20;1.08;;;0.70;;
21494;SDS011;10909;53.590;10.054;2022-08-30T16:04:46;1.10;;;0.90;;
21494;SDS011;10909;53.590;10.054;2022-08-30T16:07:12;0.60;;;0.60;;
21494;SDS011;10909;53.590;10.054;2022-08-30T16:09:38;0.80;;;0.70;;
21494;SDS011;10909;53.590;10.054;2022-08-30T16:12:04;0.57;;;0.57;;
21494;SDS011;10909;53.590;10.054;2022-08-30T16:14:31;0.80;;;0.80;;
21494;SDS011;10909;53.590;10.054;2022-08-30T16:16:57;1.63;;;0.95;;